createdAt,value
2022-10-05T00:02:23.896Z,12.00
2022-10-05T00:05:22.782Z,12.00
2022-10-05T00:08:15.654Z,12.00
2022-10-05T00:11:08.545Z,12.10
2022-10-05T00:13:57.082Z,12.10
2022-10-05T00:16:46.718Z,12.00
2022-10-05T00:19:38.183Z,11.90
2022-10-05T00:22:32.882Z,11.90
2022-10-05T00:25:23.494Z,11.90
2022-10-05T00:28:23.075Z,12.00
2022-10-05T00:31:18.222Z,11.90
2022-10-05T00:34:06.920Z,11.90
2022-10-05T00:36:55.732Z,11.90
2022-10-05T00:39:44.474Z,11.90
2022-10-05T00:42:52.904Z,11.90
2022-10-05T00:45:47.155Z,11.80
2022-10-05T00:48:44.414Z,11.90
2022-10-05T00:51:37.346Z,12.00
2022-10-05T00:54:35.202Z,11.90
2022-10-05T00:57:34.044Z,12.00
2022-10-05T01:00:26.043Z,12.00
2022-10-05T01:03:22.824Z,12.00
2022-10-05T01:06:23.620Z,12.10
2022-10-05T01:09:22.678Z,12.00
2022-10-05T01:12:20.643Z,12.10
2022-10-05T01:15:13.944Z,12.00
2022-10-05T01:18:08.634Z,11.90
2022-10-05T01:21:05.070Z,12.00
2022-10-05T01:24:22.136Z,12.00
2022-10-05T01:27:22.753Z,12.10
2022-10-05T01:30:16.949Z,12.10
2022-10-05T01:33:14.985Z,12.10
2022-10-05T01:36:11.102Z,12.10
2022-10-05T01:39:07.355Z,12.10
2022-10-05T01:42:04.954Z,12.20
2022-10-05T01:44:59.541Z,12.20
2022-10-05T01:47:53.082Z,12.10
2022-10-05T01:50:52.339Z,12.00
2022-10-05T01:53:53.042Z,11.90
2022-10-05T01:56:51.803Z,12.00
2022-10-05T01:59:53.035Z,12.00
2022-10-05T02:02:47.277Z,12.10
2022-10-05T02:05:44.806Z,12.10
2022-10-05T02:08:40.251Z,12.10
2022-10-05T02:11:29.486Z,12.00
2022-10-05T02:14:23.748Z,12.00
2022-10-05T02:17:18.541Z,12.00
2022-10-05T02:20:11.490Z,11.90
2022-10-05T02:23:06.188Z,11.90
2022-10-05T02:25:57.346Z,11.80
2022-10-05T02:28:51.638Z,11.80
2022-10-05T02:31:46.217Z,11.70
2022-10-05T02:34:39.360Z,11.70
2022-10-05T02:37:45.744Z,11.70
2022-10-05T02:40:45.569Z,11.70
2022-10-05T02:43:46.363Z,11.70
2022-10-05T02:46:41.665Z,11.70
2022-10-05T02:49:41.250Z,11.70
2022-10-05T02:52:37.913Z,11.70
2022-10-05T02:55:34.973Z,11.60
2022-10-05T02:58:29.122Z,11.60
2022-10-05T03:01:25.436Z,11.60
2022-10-05T03:04:27.078Z,11.60
2022-10-05T03:07:19.730Z,11.70
2022-10-05T03:10:14.215Z,11.60
2022-10-05T03:13:09.538Z,11.70
2022-10-05T03:16:14.023Z,11.60
2022-10-05T03:19:14.165Z,11.70
2022-10-05T03:22:20.670Z,11.80
2022-10-05T03:25:36.191Z,11.80
2022-10-05T03:28:32.755Z,11.70
2022-10-05T03:31:29.707Z,11.70
2022-10-05T03:34:24.539Z,11.80
2022-10-05T03:37:21.850Z,11.80
2022-10-05T03:40:23.952Z,11.70
2022-10-05T03:43:33.964Z,11.60
2022-10-05T03:46:37.622Z,11.70
2022-10-05T03:49:41.393Z,11.60
2022-10-05T03:52:37.633Z,11.50
2022-10-05T03:55:32.663Z,11.50
2022-10-05T03:58:26.780Z,11.60
2022-10-05T04:01:20.655Z,11.50
2022-10-05T04:04:14.892Z,11.50
2022-10-05T04:07:04.152Z,11.50
2022-10-05T04:09:55.984Z,11.50
2022-10-05T04:12:50.516Z,11.40
2022-10-05T04:15:46.046Z,11.50
2022-10-05T04:18:38.992Z,11.60
2022-10-05T04:21:33.561Z,11.60
2022-10-05T04:24:27.605Z,11.60
2022-10-05T04:27:19.604Z,11.60
2022-10-05T04:30:14.498Z,11.40
2022-10-05T04:33:03.452Z,11.50
2022-10-05T04:36:18.899Z,11.50
2022-10-05T04:39:19.992Z,11.40
2022-10-05T04:42:14.376Z,11.40
2022-10-05T04:45:15.807Z,11.40
2022-10-05T04:48:41.691Z,11.40
2022-10-05T04:51:39.158Z,11.40
2022-10-05T04:54:45.360Z,11.40
2022-10-05T04:57:42.485Z,11.40
2022-10-05T05:00:44.649Z,11.30
2022-10-05T05:03:46.908Z,11.30
2022-10-05T05:06:43.391Z,11.30
2022-10-05T05:10:04.165Z,11.30
2022-10-05T05:13:05.220Z,11.30
2022-10-05T05:16:00.737Z,11.30
2022-10-05T05:19:07.672Z,11.30
2022-10-05T05:22:04.145Z,11.40
2022-10-05T05:25:13.326Z,11.40
2022-10-05T05:28:16.975Z,11.50
2022-10-05T05:31:13.513Z,11.50
2022-10-05T05:34:11.580Z,11.50
2022-10-05T05:37:07.698Z,11.50
2022-10-05T05:40:04.678Z,11.50
2022-10-05T05:43:00.387Z,11.60
2022-10-05T05:45:58.711Z,11.60
2022-10-05T05:48:48.951Z,11.60
2022-10-05T05:51:42.329Z,11.60
2022-10-05T05:54:36.295Z,11.60
2022-10-05T05:57:31.063Z,11.70
2022-10-05T06:00:25.148Z,11.70
2022-10-05T06:03:24.247Z,11.80
2022-10-05T06:06:16.928Z,11.80
2022-10-05T06:09:19.367Z,11.90
2022-10-05T06:12:25.459Z,11.90
2022-10-05T06:15:25.918Z,11.90
2022-10-05T06:18:18.144Z,12.00
2022-10-05T06:21:17.008Z,12.00
2022-10-05T06:24:13.920Z,12.00
2022-10-05T06:27:37.865Z,12.00
2022-10-05T06:30:37.278Z,12.10
2022-10-05T06:33:44.158Z,12.10
2022-10-05T06:36:42.025Z,12.20
2022-10-05T06:39:49.186Z,12.30
2022-10-05T06:42:52.760Z,12.30
2022-10-05T06:46:07.293Z,12.30
2022-10-05T06:49:22.670Z,12.40
2022-10-05T06:52:38.212Z,12.60
2022-10-05T06:55:39.659Z,12.50
2022-10-05T06:58:52.805Z,12.50
2022-10-05T07:01:54.044Z,12.60
2022-10-05T07:05:04.568Z,12.60
2022-10-05T07:07:57.890Z,12.60
2022-10-05T07:11:01.116Z,12.60
2022-10-05T07:14:09.919Z,12.70
2022-10-05T07:17:17.897Z,12.70
2022-10-05T07:20:18.258Z,12.70
2022-10-05T07:23:27.797Z,12.80
2022-10-05T07:26:21.791Z,12.90
2022-10-05T07:29:29.431Z,13.00
2022-10-05T07:32:34.032Z,13.10
2022-10-05T07:35:50.679Z,13.20
2022-10-05T07:38:44.201Z,13.30
2022-10-05T07:41:41.349Z,13.40
2022-10-05T07:44:36.464Z,13.60
2022-10-05T07:47:36.521Z,13.70
2022-10-05T07:50:29.594Z,13.80
2022-10-05T07:53:24.368Z,13.80
2022-10-05T07:56:22.067Z,13.80
2022-10-05T07:59:17.932Z,13.90
2022-10-05T08:02:17.197Z,14.00
2022-10-05T08:05:14.453Z,13.90
2022-10-05T08:08:14.247Z,14.00
2022-10-05T08:11:14.926Z,14.00
2022-10-05T08:14:11.234Z,14.60
2022-10-05T08:17:03.602Z,14.70
2022-10-05T08:19:58.632Z,14.60
2022-10-05T08:22:54.246Z,14.50
2022-10-05T08:25:51.974Z,14.60
2022-10-05T08:28:47.336Z,14.90
2022-10-05T08:31:39.331Z,15.80
2022-10-05T08:34:31.916Z,16.20
2022-10-05T08:37:23.768Z,15.90
2022-10-05T08:40:42.030Z,15.60
2022-10-05T08:43:51.633Z,15.50
2022-10-05T08:47:08.770Z,15.50
2022-10-05T08:50:12.916Z,15.50
2022-10-05T08:53:19.544Z,15.50
2022-10-05T08:56:41.004Z,15.50
2022-10-05T08:59:58.421Z,15.50
2022-10-05T09:03:15.249Z,15.50
2022-10-05T09:06:25.167Z,15.50
2022-10-05T09:09:32.862Z,15.50
2022-10-05T09:12:47.610Z,15.60
2022-10-05T09:15:57.844Z,15.70
2022-10-05T09:19:29.767Z,15.80
2022-10-05T09:22:30.319Z,15.90
2022-10-05T09:25:25.126Z,15.90
2022-10-05T09:28:25.501Z,16.00
2022-10-05T09:31:36.574Z,16.10
2022-10-05T09:34:56.797Z,16.20
2022-10-05T09:38:16.110Z,16.20
2022-10-05T09:41:39.475Z,16.20
2022-10-05T09:45:10.480Z,16.20
2022-10-05T09:48:22.257Z,16.20
2022-10-05T09:51:49.666Z,16.20
2022-10-05T09:55:03.158Z,16.20
2022-10-05T09:58:28.503Z,16.30
2022-10-05T10:01:42.362Z,16.40
2022-10-05T10:05:07.830Z,16.30
2022-10-05T10:08:20.597Z,16.30
2022-10-05T10:11:31.926Z,16.30
2022-10-05T10:14:42.672Z,16.20
2022-10-05T10:17:54.233Z,16.20
2022-10-05T10:21:04.631Z,16.30
2022-10-05T10:24:04.884Z,16.30
2022-10-05T10:27:17.557Z,16.40
2022-10-05T10:30:39.090Z,16.50
2022-10-05T10:33:50.398Z,16.70
2022-10-05T10:37:00.113Z,17.10
2022-10-05T10:40:10.064Z,17.30
2022-10-05T10:43:29.519Z,17.40
2022-10-05T10:46:32.962Z,17.50
2022-10-05T10:49:39.847Z,17.40
2022-10-05T10:52:49.173Z,17.30
2022-10-05T10:55:47.992Z,17.20
2022-10-05T10:59:05.558Z,17.20
2022-10-05T11:02:24.613Z,17.30
2022-10-05T11:05:31.265Z,17.30
2022-10-05T11:09:01.453Z,17.50
2022-10-05T11:12:34.666Z,17.70
2022-10-05T11:15:52.872Z,17.90
2022-10-05T11:18:54.300Z,17.80
2022-10-05T11:21:58.422Z,17.80
2022-10-05T11:25:03.256Z,17.90
2022-10-05T11:28:05.685Z,17.80
2022-10-05T11:31:26.495Z,17.80
2022-10-05T11:35:00.307Z,17.70
2022-10-05T11:38:13.324Z,17.70
2022-10-05T11:41:24.709Z,17.80
2022-10-05T11:44:55.129Z,17.70
2022-10-05T11:48:07.310Z,17.70
2022-10-05T11:51:16.845Z,17.80
2022-10-05T11:54:25.869Z,17.70
2022-10-05T11:57:19.193Z,17.70
2022-10-05T12:00:16.304Z,17.70
2022-10-05T12:03:27.846Z,17.80
2022-10-05T12:06:36.734Z,17.80
2022-10-05T12:10:02.338Z,17.80
2022-10-05T12:13:09.020Z,17.70
2022-10-05T12:16:04.251Z,17.70
2022-10-05T12:19:01.768Z,17.70
2022-10-05T12:21:55.709Z,17.80
2022-10-05T12:25:01.885Z,17.90
2022-10-05T12:27:54.884Z,17.90
2022-10-05T12:31:22.046Z,18.00
2022-10-05T12:34:20.928Z,18.00
2022-10-05T12:37:18.380Z,17.90
2022-10-05T12:40:20.149Z,18.00
2022-10-05T12:43:18.666Z,17.90
2022-10-05T12:46:17.862Z,17.80
2022-10-05T12:49:42.982Z,17.80
2022-10-05T12:52:56.099Z,17.90
2022-10-05T12:55:54.608Z,17.80
2022-10-05T12:58:52.649Z,17.90
2022-10-05T13:01:48.017Z,17.90
2022-10-05T13:04:48.093Z,18.00
2022-10-05T13:07:49.760Z,18.00
2022-10-05T13:10:44.247Z,18.00
2022-10-05T13:13:42.499Z,18.00
2022-10-05T13:16:41.431Z,17.90
2022-10-05T13:19:40.470Z,17.90
2022-10-05T13:22:36.733Z,17.90
2022-10-05T13:25:30.845Z,17.80
2022-10-05T13:28:26.097Z,17.80
2022-10-05T13:31:20.024Z,17.80
2022-10-05T13:34:18.844Z,17.80
2022-10-05T13:37:13.554Z,17.70
2022-10-05T13:40:18.723Z,17.70
2022-10-05T13:43:17.716Z,17.70
2022-10-05T13:46:12.908Z,17.70
2022-10-05T13:49:15.918Z,17.70
2022-10-05T13:52:16.460Z,17.60
2022-10-05T13:55:17.959Z,17.60
2022-10-05T13:58:13.939Z,17.60
2022-10-05T14:01:08.242Z,17.50
2022-10-05T14:04:17.696Z,17.50
2022-10-05T14:07:25.368Z,17.50
2022-10-05T14:10:29.269Z,17.50
2022-10-05T14:13:33.013Z,17.40
2022-10-05T14:16:23.676Z,17.40
2022-10-05T14:19:22.918Z,17.40
2022-10-05T14:22:14.698Z,17.40
2022-10-05T14:25:18.395Z,17.40
2022-10-05T14:28:28.813Z,17.30
2022-10-05T14:31:29.847Z,17.30
2022-10-05T14:34:32.268Z,17.30
2022-10-05T14:37:22.892Z,17.30
2022-10-05T14:40:31.386Z,17.20
2022-10-05T14:43:21.840Z,17.20
2022-10-05T14:46:28.159Z,17.20
2022-10-05T14:49:22.577Z,17.20
2022-10-05T14:52:32.652Z,17.20
2022-10-05T14:55:51.065Z,17.20
2022-10-05T14:58:55.671Z,17.10
2022-10-05T15:01:52.829Z,17.10
2022-10-05T15:04:45.406Z,17.10
2022-10-05T15:07:39.438Z,17.10
2022-10-05T15:10:36.944Z,17.10
2022-10-05T15:13:32.315Z,17.00
2022-10-05T15:16:25.451Z,17.00
2022-10-05T15:19:20.960Z,17.00
2022-10-05T15:22:23.931Z,17.00
2022-10-05T15:25:16.553Z,17.00
2022-10-05T15:28:13.241Z,17.00
2022-10-05T15:31:06.807Z,16.90
2022-10-05T15:34:02.596Z,16.90
2022-10-05T15:36:59.342Z,16.90
2022-10-05T15:39:52.479Z,16.90
2022-10-05T15:42:43.202Z,16.90
2022-10-05T15:45:34.462Z,16.80
2022-10-05T15:48:31.223Z,16.80
2022-10-05T15:51:29.210Z,16.80
2022-10-05T15:54:44.126Z,16.70
2022-10-05T15:57:42.397Z,16.70
2022-10-05T16:00:39.267Z,16.70
2022-10-05T16:03:44.788Z,16.70
2022-10-05T16:07:01.115Z,16.70
2022-10-05T16:09:58.475Z,16.60
2022-10-05T16:13:04.508Z,16.60
2022-10-05T16:16:02.095Z,16.60
2022-10-05T16:19:01.110Z,16.60
2022-10-05T16:21:57.971Z,16.60
2022-10-05T16:25:03.995Z,16.60
2022-10-05T16:28:05.679Z,16.60
2022-10-05T16:31:02.063Z,16.50
2022-10-05T16:34:06.633Z,16.50
2022-10-05T16:37:02.655Z,16.50
2022-10-05T16:39:59.750Z,16.50
2022-10-05T16:43:00.981Z,16.40
2022-10-05T16:45:59.352Z,16.40
2022-10-05T16:49:00.436Z,16.40
2022-10-05T16:51:57.775Z,16.40
2022-10-05T16:54:49.986Z,16.30
2022-10-05T16:57:42.499Z,16.30
2022-10-05T17:00:40.882Z,16.30
2022-10-05T17:03:41.732Z,16.30
2022-10-05T17:06:54.034Z,16.30
2022-10-05T17:10:11.333Z,16.20
2022-10-05T17:13:13.628Z,16.30
2022-10-05T17:16:09.222Z,16.20
2022-10-05T17:19:32.751Z,16.20
2022-10-05T17:22:29.646Z,16.20
2022-10-05T17:25:24.817Z,16.20
2022-10-05T17:28:23.142Z,16.10
2022-10-05T17:31:18.392Z,16.10
2022-10-05T17:34:27.605Z,16.10
2022-10-05T17:37:36.795Z,16.10
2022-10-05T17:40:36.436Z,16.10
2022-10-05T17:43:26.734Z,16.10
2022-10-05T17:46:39.673Z,16.00
2022-10-05T17:50:08.341Z,16.00
2022-10-05T17:53:38.820Z,16.00
2022-10-05T17:56:27.640Z,16.00
2022-10-05T17:59:39.819Z,16.00
2022-10-05T18:02:44.278Z,16.00
2022-10-05T18:05:34.182Z,15.90
2022-10-05T18:08:37.612Z,15.90
2022-10-05T18:11:41.233Z,15.90
2022-10-05T18:14:50.446Z,15.90
2022-10-05T18:17:46.396Z,15.90
2022-10-05T18:20:35.764Z,15.80
2022-10-05T18:23:35.586Z,15.80
2022-10-05T18:26:37.790Z,15.80
2022-10-05T18:30:00.891Z,15.80
2022-10-05T18:33:20.735Z,15.70
2022-10-05T18:36:28.652Z,15.70
2022-10-05T18:39:33.633Z,15.70
2022-10-05T18:42:32.210Z,15.70
2022-10-05T18:45:26.306Z,15.60
2022-10-05T18:48:24.139Z,15.70
2022-10-05T18:51:21.517Z,15.70
2022-10-05T18:54:25.069Z,15.70
2022-10-05T18:57:51.581Z,15.70
2022-10-05T19:01:04.613Z,15.70
2022-10-05T19:04:04.698Z,15.70
2022-10-05T19:07:07.884Z,15.70
2022-10-05T19:10:09.921Z,15.70
2022-10-05T19:13:11.987Z,15.70
2022-10-05T19:16:15.241Z,15.60
2022-10-05T19:19:33.604Z,15.70
2022-10-05T19:22:37.934Z,15.60
2022-10-05T19:25:39.143Z,15.60
2022-10-05T19:28:33.220Z,15.60
2022-10-05T19:31:31.349Z,15.60
2022-10-05T19:34:36.381Z,15.60
2022-10-05T19:37:33.339Z,15.60
2022-10-05T19:40:29.258Z,15.60
2022-10-05T19:43:54.257Z,15.60
2022-10-05T19:46:55.423Z,15.60
2022-10-05T19:49:50.301Z,15.60
2022-10-05T19:52:46.354Z,15.60
2022-10-05T19:55:41.748Z,15.50
2022-10-05T19:58:33.312Z,15.50
2022-10-05T20:01:30.998Z,15.50
2022-10-05T20:04:34.114Z,15.50
2022-10-05T20:07:23.436Z,15.40
2022-10-05T20:10:29.672Z,15.40
2022-10-05T20:13:23.321Z,15.40
2022-10-05T20:16:47.966Z,15.40
2022-10-05T20:19:57.193Z,15.40
2022-10-05T20:22:47.398Z,15.30
2022-10-05T20:25:40.339Z,15.30
2022-10-05T20:28:32.653Z,15.30
2022-10-05T20:31:22.319Z,15.20
2022-10-05T20:34:13.150Z,15.20
2022-10-05T20:37:01.843Z,15.20
2022-10-05T20:39:51.561Z,15.20
2022-10-05T20:42:40.125Z,15.20
2022-10-05T20:45:28.657Z,15.10
2022-10-05T20:48:17.551Z,15.10
2022-10-05T20:51:07.785Z,15.10
2022-10-05T20:53:57.307Z,15.10
2022-10-05T20:56:46.258Z,15.10
2022-10-05T20:59:35.853Z,15.10
2022-10-05T21:02:27.283Z,15.10
2022-10-05T21:05:18.310Z,15.00
2022-10-05T21:08:08.353Z,15.00
2022-10-05T21:10:56.927Z,15.00
2022-10-05T21:13:47.191Z,14.90
2022-10-05T21:16:38.277Z,14.90
2022-10-05T21:19:27.433Z,14.90
2022-10-05T21:22:16.078Z,14.90
2022-10-05T21:25:09.054Z,14.90
2022-10-05T21:27:57.771Z,14.90
2022-10-05T21:30:46.396Z,14.80
2022-10-05T21:33:34.997Z,14.90
2022-10-05T21:36:24.964Z,14.80
2022-10-05T21:39:13.580Z,14.80
2022-10-05T21:42:03.961Z,14.80
2022-10-05T21:44:52.482Z,14.80
2022-10-05T21:47:41.560Z,14.70
2022-10-05T21:50:30.411Z,14.70
2022-10-05T21:53:22.279Z,14.60
2022-10-05T21:56:15.491Z,14.60
2022-10-05T21:59:08.795Z,14.60
2022-10-05T22:01:57.453Z,14.60
2022-10-05T22:04:46.272Z,14.60
2022-10-05T22:07:35.127Z,14.50
2022-10-05T22:10:23.644Z,14.60
2022-10-05T22:13:12.284Z,14.50
2022-10-05T22:16:02.289Z,14.50
2022-10-05T22:18:53.599Z,14.50
2022-10-05T22:21:42.767Z,14.50
2022-10-05T22:24:31.330Z,14.40
2022-10-05T22:27:20.695Z,14.40
2022-10-05T22:30:10.329Z,14.50
2022-10-05T22:33:00.150Z,14.40
2022-10-05T22:35:48.761Z,14.40
2022-10-05T22:38:37.315Z,14.40
2022-10-05T22:41:25.832Z,14.40
2022-10-05T22:44:14.557Z,14.40
2022-10-05T22:47:04.846Z,14.30
2022-10-05T22:49:55.268Z,14.30
2022-10-05T22:52:43.965Z,14.20
2022-10-05T22:55:32.555Z,14.20
2022-10-05T22:58:21.506Z,14.20
2022-10-05T23:01:11.857Z,14.10
2022-10-05T23:04:00.545Z,14.20
2022-10-05T23:06:50.581Z,14.30
2022-10-05T23:09:39.180Z,14.20
2022-10-05T23:12:30.343Z,14.20
2022-10-05T23:15:18.954Z,14.20
2022-10-05T23:18:07.659Z,14.20
2022-10-05T23:20:56.713Z,14.10
2022-10-05T23:23:49.063Z,14.10
2022-10-05T23:26:37.641Z,14.10
2022-10-05T23:29:28.311Z,14.10
2022-10-05T23:32:16.861Z,14.00
2022-10-05T23:35:06.350Z,14.00
2022-10-05T23:37:55.126Z,14.00
2022-10-05T23:40:48.599Z,14.00
2022-10-05T23:43:38.080Z,14.00
2022-10-05T23:46:26.897Z,14.00
2022-10-05T23:49:16.146Z,13.90
2022-10-05T23:52:04.709Z,13.80
2022-10-05T23:54:53.326Z,13.90
2022-10-05T23:57:43.399Z,13.90
